Time;durP1;ratioP1;P1;durP2;ratioP2;P2;SDS_P1;SDS_P2;PMS_P1;PMS_P2;Temp;Humidity;BMP_temperature;BMP_pressure;BME280_temperature;BME280_humidity;BME280_pressure;Samples;Min_cycle;Max_cycle;Signal;HPM_P1;HPM_P2
2021/04/05 00:01:04;;;;;;;7.60;4.00;;;5.20;99.90;;;;;;5033467;28;20208;-76
2021/04/05 00:03:30;;;;;;;5.30;3.50;;;5.10;99.90;;;;;;5033673;28;20212;-76
2021/04/05 00:05:55;;;;;;;4.23;3.27;;;5.10;99.90;;;;;;5033721;28;20177;-76
2021/04/05 00:08:21;;;;;;;6.77;3.43;;;4.90;99.90;;;;;;5033547;28;20615;-76
2021/04/05 00:10:55;;;;;;;4.57;3.03;;;4.90;99.90;;;;;;5033456;28;20217;-76
2021/04/05 00:13:26;;;;;;;4.50;3.47;;;4.90;99.90;;;;;;5033322;28;20198;-75
2021/04/05 00:15:51;;;;;;;6.67;4.17;;;4.90;99.90;;;;;;5033480;28;20203;-75
2021/04/05 00:18:18;;;;;;;4.83;3.30;;;4.80;99.90;;;;;;5033404;28;20167;-76
2021/04/05 00:20:57;;;;;;;5.70;3.63;;;4.70;99.90;;;;;;5033432;28;20175;-76
2021/04/05 00:23:25;;;;;;;5.17;3.80;;;4.60;99.90;;;;;;5032863;28;20249;-76
2021/04/05 00:25:52;;;;;;;4.67;3.17;;;4.50;99.90;;;;;;5040544;28;20180;-75
2021/04/05 00:28:18;;;;;;;4.10;3.57;;;4.40;99.90;;;;;;5033436;28;20176;-75
2021/04/05 00:30:43;;;;;;;4.20;3.67;;;4.30;99.90;;;;;;5032246;28;20174;-76
2021/04/05 00:33:10;;;;;;;3.80;3.30;;;4.30;99.90;;;;;;5039146;28;20197;-76
2021/04/05 00:35:38;;;;;;;4.67;3.60;;;4.20;99.90;;;;;;5038084;28;20544;-75
2021/04/05 00:38:09;;;;;;;4.63;3.83;;;4.20;99.90;;;;;;5034570;28;20166;-75
2021/04/05 00:40:44;;;;;;;5.50;3.23;;;4.20;99.90;;;;;;5032698;28;20184;-76
2021/04/05 00:43:12;;;;;;;3.90;3.30;;;4.30;99.90;;;;;;5033099;28;20189;-75
2021/04/05 00:45:38;;;;;;;3.93;3.27;;;4.30;99.90;;;;;;5034098;28;20178;-75
2021/04/05 00:48:05;;;;;;;4.77;3.23;;;4.30;99.90;;;;;;5033810;28;20176;-75
2021/04/05 00:50:49;;;;;;;5.67;3.60;;;4.30;99.90;;;;;;5033499;28;20229;-75
2021/04/05 00:53:17;;;;;;;5.27;3.33;;;4.30;99.90;;;;;;5033603;28;20185;-76
2021/04/05 00:55:45;;;;;;;4.40;3.40;;;4.30;99.90;;;;;;5033529;28;20176;-75
2021/04/05 00:58:11;;;;;;;5.93;2.97;;;4.30;99.90;;;;;;5033520;28;20165;-75
2021/04/05 01:00:46;;;;;;;4.80;3.53;;;4.40;99.90;;;;;;5032380;28;20263;-75
2021/04/05 01:03:17;;;;;;;4.30;3.10;;;4.40;99.90;;;;;;5032213;28;20177;-75
2021/04/05 01:05:44;;;;;;;5.00;2.90;;;4.40;99.90;;;;;;5032191;28;20267;-75
2021/04/05 01:08:11;;;;;;;4.00;3.10;;;4.40;99.90;;;;;;5033444;28;20581;-75
2021/04/05 01:10:37;;;;;;;5.27;3.47;;;4.30;99.90;;;;;;5033628;28;20171;-75
2021/04/05 01:13:04;;;;;;;4.27;3.03;;;4.20;99.90;;;;;;5032108;28;20193;-76
2021/04/05 01:15:30;;;;;;;3.83;2.90;;;4.00;99.90;;;;;;5032154;28;20362;-76
2021/04/05 01:17:56;;;;;;;5.97;3.60;;;4.10;99.90;;;;;;5033320;28;20173;-75
2021/04/05 01:20:21;;;;;;;3.30;2.90;;;4.00;99.90;;;;;;5033253;28;20179;-75
2021/04/05 01:22:50;;;;;;;4.17;3.40;;;4.10;99.90;;;;;;5032946;28;20219;-75
2021/04/05 01:25:18;;;;;;;4.13;3.13;;;4.00;99.90;;;;;;5033052;28;20230;-75
2021/04/05 01:27:44;;;;;;;3.87;2.93;;;4.00;99.90;;;;;;5033116;28;20172;-75
2021/04/05 01:30:35;;;;;;;3.73;3.40;;;3.90;99.90;;;;;;5033338;28;20181;-75
2021/04/05 01:33:08;;;;;;;3.97;3.30;;;4.00;99.90;;;;;;5032964;28;20295;-75
2021/04/05 01:35:44;;;;;;;6.87;3.60;;;4.10;99.90;;;;;;5033369;28;20181;-75
2021/04/05 01:38:12;;;;;;;4.97;3.43;;;4.10;99.90;;;;;;5033437;28;20180;-74
2021/04/05 01:40:44;;;;;;;5.53;3.70;;;4.10;99.90;;;;;;5032321;28;20172;-74
2021/04/05 01:43:10;;;;;;;6.50;3.73;;;4.00;99.90;;;;;;5035748;28;20211;-74
2021/04/05 01:45:37;;;;;;;4.40;3.50;;;4.00;99.90;;;;;;5033266;28;20180;-75
2021/04/05 01:48:04;;;;;;;4.53;3.60;;;4.00;99.90;;;;;;5010527;28;20561;-75
2021/04/05 01:50:30;;;;;;;3.80;3.37;;;4.00;99.90;;;;;;5025413;28;20208;-74
2021/04/05 01:53:02;;;;;;;3.93;3.53;;;4.00;99.90;;;;;;5030548;28;20196;-75
2021/04/05 01:55:28;;;;;;;4.83;3.30;;;3.90;99.90;;;;;;5033847;28;20176;-75
2021/04/05 01:57:53;;;;;;;5.93;3.90;;;4.00;99.90;;;;;;5019091;28;20263;-75
2021/04/05 02:00:25;;;;;;;4.23;3.57;;;4.00;99.90;;;;;;5036997;28;20186;-74
2021/04/05 02:02:51;;;;;;;5.57;3.90;;;4.00;99.90;;;;;;5036561;28;20259;-74
2021/04/05 02:05:17;;;;;;;4.13;3.53;;;4.00;99.90;;;;;;5036039;28;20180;-74
2021/04/05 02:07:43;;;;;;;10.23;3.70;;;3.90;99.90;;;;;;5036978;28;20179;-74
2021/04/05 02:10:12;;;;;;;3.43;3.00;;;3.70;99.90;;;;;;5036596;28;20176;-74
2021/04/05 02:12:39;;;;;;;3.93;3.50;;;3.50;99.90;;;;;;5036415;28;20192;-74
2021/04/05 02:15:08;;;;;;;5.40;3.57;;;3.50;99.90;;;;;;5018643;28;20652;-75
2021/04/05 02:17:34;;;;;;;4.90;3.70;;;3.50;99.90;;;;;;5036304;28;20167;-74
2021/04/05 02:19:59;;;;;;;4.67;3.63;;;3.40;99.90;;;;;;5036113;28;20180;-74
2021/04/05 02:22:25;;;;;;;5.03;3.60;;;3.30;99.90;;;;;;5036065;28;20208;-74
2021/04/05 02:24:51;;;;;;;3.80;3.20;;;3.30;99.90;;;;;;5036268;28;20177;-74
2021/04/05 02:27:17;;;;;;;3.97;3.40;;;3.30;99.90;;;;;;5038288;28;20210;-74
2021/04/05 02:29:43;;;;;;;5.53;3.30;;;3.40;99.90;;;;;;5036248;28;20193;-75
2021/04/05 02:32:09;;;;;;;7.10;3.73;;;3.40;99.90;;;;;;5057494;22;20255;-75
2021/04/05 02:34:35;;;;;;;4.77;2.80;;;3.50;99.90;;;;;;5055646;28;20207;-74
2021/04/05 02:37:02;;;;;;;5.73;3.50;;;3.60;99.90;;;;;;5054580;28;20175;-74
2021/04/05 02:39:28;;;;;;;5.90;3.37;;;3.60;99.90;;;;;;5056295;28;20236;-74
2021/04/05 02:41:54;;;;;;;3.77;3.13;;;3.50;99.90;;;;;;5055851;28;20200;-74
2021/04/05 02:44:21;;;;;;;4.63;3.40;;;3.50;99.90;;;;;;5056083;28;20227;-74
2021/04/05 02:46:47;;;;;;;4.50;3.60;;;3.40;99.90;;;;;;5054538;28;20233;-74
2021/04/05 02:49:16;;;;;;;4.20;2.80;;;3.30;99.90;;;;;;5055612;28;20685;-75
2021/04/05 02:51:47;;;;;;;4.13;3.23;;;3.10;99.90;;;;;;5054553;28;20579;-74
2021/04/05 02:54:20;;;;;;;4.40;3.70;;;2.90;99.90;;;;;;5055742;28;20222;-74
2021/04/05 02:56:47;;;;;;;4.87;3.63;;;2.90;99.90;;;;;;5055671;28;20256;-74
2021/04/05 02:59:16;;;;;;;5.73;3.30;;;2.80;99.90;;;;;;5055498;28;20173;-74
2021/04/05 03:01:43;;;;;;;5.13;3.50;;;2.70;99.90;;;;;;5055966;28;20197;-74
2021/04/05 03:04:09;;;;;;;4.00;3.53;;;2.60;99.90;;;;;;5053780;28;20554;-75
2021/04/05 03:06:36;;;;;;;5.73;3.50;;;2.50;99.90;;;;;;5054683;28;20173;-74
2021/04/05 03:09:05;;;;;;;5.87;3.07;;;2.50;99.90;;;;;;5054123;28;20180;-74
2021/04/05 03:11:32;;;;;;;5.67;3.30;;;2.50;99.90;;;;;;5053897;28;20268;-74
2021/04/05 03:13:58;;;;;;;4.43;3.57;;;2.50;99.90;;;;;;5055142;28;20677;-74
2021/04/05 03:16:27;;;;;;;5.57;3.83;;;2.50;99.90;;;;;;5055434;28;20168;-74
2021/04/05 03:18:55;;;;;;;4.53;3.40;;;2.60;99.90;;;;;;5055190;28;20634;-74
2021/04/05 03:21:22;;;;;;;4.47;3.80;;;2.50;99.90;;;;;;5053787;28;20191;-74
2021/04/05 03:23:49;;;;;;;3.87;2.77;;;2.50;99.90;;;;;;5055162;28;20643;-74
2021/04/05 03:26:15;;;;;;;6.20;3.23;;;2.50;99.90;;;;;;5054881;28;20263;-74
2021/04/05 03:28:41;;;;;;;7.27;3.63;;;2.50;99.90;;;;;;5055039;28;20202;-74
2021/04/05 03:31:11;;;;;;;3.87;3.47;;;2.50;99.90;;;;;;5053476;28;20694;-74
2021/04/05 03:33:47;;;;;;;3.90;3.50;;;2.60;99.90;;;;;;5054754;28;20187;-75
2021/04/05 03:36:31;;;;;;;6.23;3.43;;;2.50;99.90;;;;;;5054921;28;20710;-74
2021/04/05 03:38:58;;;;;;;4.63;3.50;;;2.60;99.90;;;;;;5054971;28;20247;-75
2021/04/05 03:41:48;;;;;;;6.80;3.80;;;2.60;99.90;;;;;;5054709;28;20196;-74
2021/04/05 03:44:24;;;;;;;5.70;3.70;;;2.60;99.90;;;;;;5054924;28;20174;-75
2021/04/05 03:46:52;;;;;;;3.77;3.17;;;2.70;99.90;;;;;;5054374;28;20185;-76
2021/04/05 03:49:31;;;;;;;4.77;3.27;;;2.70;99.90;;;;;;5053029;28;20544;-75
2021/04/05 03:52:26;;;;;;;5.90;3.50;;;2.70;99.90;;;;;;5054440;28;20194;-76
2021/04/05 03:54:58;;;;;;;3.57;3.10;;;2.60;99.90;;;;;;5054214;28;20212;-74
2021/04/05 03:57:28;;;;;;;4.33;3.43;;;2.60;99.90;;;;;;5054307;28;20171;-75
2021/04/05 03:59:57;;;;;;;4.53;3.50;;;2.60;99.90;;;;;;5054446;28;20179;-75
2021/04/05 04:02:31;;;;;;;5.73;3.40;;;2.30;99.90;;;;;;5047338;28;20206;-75
2021/04/05 04:05:26;;;;;;;5.33;3.67;;;2.30;99.90;;;;;;5035299;28;20184;-75
2021/04/05 04:10:49;;;;;;;5.40;3.20;;;2.30;99.90;;;;;;5039956;28;20674;-75
2021/04/05 04:13:16;;;;;;;4.97;3.13;;;2.40;99.90;;;;;;5052839;28;20737;-75
2021/04/05 04:15:43;;;;;;;4.40;3.47;;;2.40;99.90;;;;;;5053211;28;20168;-75
2021/04/05 04:18:10;;;;;;;5.07;4.07;;;2.30;99.90;;;;;;5053922;28;20176;-75
2021/04/05 04:20:37;;;;;;;4.43;3.73;;;2.30;99.90;;;;;;5054235;28;20229;-74
2021/04/05 04:23:03;;;;;;;5.07;3.63;;;2.20;99.90;;;;;;5054145;28;20201;-75
2021/04/05 04:25:29;;;;;;;15.67;4.23;;;2.30;99.90;;;;;;5055557;28;20174;-74
2021/04/05 04:27:55;;;;;;;5.43;3.33;;;2.20;99.90;;;;;;5054374;28;20542;-74
2021/04/05 04:30:32;;;;;;;4.20;3.23;;;2.20;99.90;;;;;;5053662;28;20193;-74
2021/04/05 04:33:04;;;;;;;5.30;4.03;;;2.20;99.90;;;;;;5053761;28;20328;-74
2021/04/05 04:35:30;;;;;;;4.93;3.33;;;2.20;99.90;;;;;;5053649;28;20233;-74
2021/04/05 04:37:56;;;;;;;7.53;3.70;;;2.10;99.90;;;;;;5052198;28;20675;-74
2021/04/05 04:40:24;;;;;;;5.53;3.37;;;2.10;99.90;;;;;;5053619;28;20167;-74
2021/04/05 04:42:51;;;;;;;4.40;3.40;;;2.10;99.90;;;;;;5053786;28;20193;-74
2021/04/05 04:45:18;;;;;;;4.60;3.37;;;2.10;99.90;;;;;;5052296;28;20194;-74
2021/04/05 04:47:45;;;;;;;5.27;3.50;;;2.10;99.90;;;;;;5053800;28;20587;-74
2021/04/05 04:50:14;;;;;;;4.33;3.47;;;2.10;99.90;;;;;;5052162;28;20232;-74
2021/04/05 04:52:39;;;;;;;4.17;3.50;;;2.20;99.90;;;;;;5053253;28;20186;-74
2021/04/05 04:55:08;;;;;;;3.83;3.40;;;2.10;99.90;;;;;;5053660;28;20213;-74
2021/04/05 04:57:34;;;;;;;4.67;3.57;;;2.00;99.90;;;;;;5053605;28;20179;-74
2021/04/05 05:00:03;;;;;;;7.80;4.20;;;2.00;99.90;;;;;;5053443;28;20670;-74
2021/04/05 05:02:30;;;;;;;5.93;3.60;;;2.00;99.90;;;;;;5052895;28;20205;-74
2021/04/05 05:04:56;;;;;;;3.97;3.57;;;2.10;99.90;;;;;;5053397;28;20180;-75
2021/04/05 05:07:24;;;;;;;4.67;3.73;;;2.10;99.90;;;;;;5053138;28;20190;-74
2021/04/05 05:09:50;;;;;;;3.90;3.50;;;2.10;99.90;;;;;;5053417;28;20280;-74
2021/04/05 05:12:16;;;;;;;4.90;3.10;;;2.20;99.90;;;;;;5051790;28;20231;-74
2021/04/05 05:14:43;;;;;;;6.37;3.83;;;2.20;99.90;;;;;;5053223;28;20201;-74
2021/04/05 05:17:10;;;;;;;6.70;3.90;;;2.20;99.90;;;;;;5053138;28;20203;-75
2021/04/05 05:19:37;;;;;;;6.00;3.20;;;2.30;99.90;;;;;;5053018;28;20176;-74
2021/04/05 05:22:04;;;;;;;4.20;3.37;;;2.30;99.90;;;;;;5051720;28;20198;-74
2021/04/05 05:24:31;;;;;;;3.63;3.03;;;2.30;99.90;;;;;;5052998;28;20244;-74
2021/04/05 05:26:57;;;;;;;6.07;3.80;;;2.30;99.90;;;;;;5052914;28;20241;-74
2021/04/05 05:29:24;;;;;;;4.90;3.17;;;2.30;99.90;;;;;;5052386;28;20180;-74
2021/04/05 05:31:50;;;;;;;5.17;3.47;;;2.20;99.90;;;;;;5051482;28;20269;-74
2021/04/05 05:34:19;;;;;;;4.57;3.57;;;2.20;99.90;;;;;;5052823;28;20215;-74
2021/04/05 05:36:46;;;;;;;5.07;3.63;;;2.20;99.90;;;;;;5053142;28;20180;-74
2021/04/05 05:39:14;;;;;;;4.33;3.63;;;2.30;99.90;;;;;;5052817;28;20696;-75
2021/04/05 05:42:03;;;;;;;8.63;4.03;;;2.40;99.90;;;;;;5052711;28;20198;-74
2021/04/05 05:44:54;;;;;;;5.17;3.37;;;2.60;99.90;;;;;;5051634;28;20287;-75
2021/04/05 05:47:22;;;;;;;5.40;4.30;;;3.00;99.90;;;;;;5052419;28;20209;-75
2021/04/05 05:49:55;;;;;;;5.77;3.90;;;3.40;99.90;;;;;;5053105;28;20708;-75
2021/04/05 05:52:56;;;;;;;5.77;3.60;;;3.60;99.90;;;;;;5052715;28;20199;-75
2021/04/05 05:55:28;;;;;;;5.50;4.07;;;3.70;99.90;;;;;;5051487;28;20277;-75
2021/04/05 05:58:03;;;;;;;5.43;4.07;;;4.00;99.90;;;;;;5053032;28;20221;-75
2021/04/05 06:00:41;;;;;;;6.87;4.37;;;4.00;99.90;;;;;;5051284;28;20233;-75
2021/04/05 06:03:34;;;;;;;6.93;4.10;;;4.20;99.90;;;;;;5049812;28;20551;-75
2021/04/05 06:06:18;;;;;;;7.17;3.93;;;4.20;99.90;;;;;;5051331;28;20188;-75
2021/04/05 06:09:03;;;;;;;4.13;3.40;;;4.30;99.90;;;;;;5051295;28;20539;-74
2021/04/05 06:12:02;;;;;;;5.63;4.10;;;4.50;99.90;;;;;;5049918;28;20195;-74
2021/04/05 06:14:49;;;;;;;5.53;4.10;;;4.60;99.90;;;;;;5050253;28;20200;-75
2021/04/05 06:17:44;;;;;;;5.67;3.90;;;4.70;99.90;;;;;;5046444;28;20264;-75
2021/04/05 06:20:18;;;;;;;4.30;3.90;;;4.80;99.90;;;;;;5017753;28;20184;-75
2021/04/05 06:23:03;;;;;;;5.73;4.40;;;4.80;99.90;;;;;;5053063;28;20201;-75
2021/04/05 06:25:29;;;;;;;4.27;3.73;;;4.80;99.90;;;;;;5052915;28;20169;-75
2021/04/05 06:28:04;;;;;;;6.33;4.13;;;4.90;99.90;;;;;;5052572;28;20631;-75
2021/04/05 06:30:57;;;;;;;4.20;3.80;;;4.90;99.90;;;;;;5052264;28;20242;-74
2021/04/05 06:33:40;;;;;;;4.00;3.60;;;5.00;99.90;;;;;;5017823;28;20213;-75
2021/04/05 06:36:34;;;;;;;6.43;4.23;;;5.20;99.90;;;;;;5047520;28;20203;-75
2021/04/05 06:39:09;;;;;;;4.60;4.17;;;5.20;99.90;;;;;;5042516;28;20188;-74
2021/04/05 06:41:35;;;;;;;7.10;5.10;;;5.30;99.90;;;;;;5045345;28;20546;-76
2021/04/05 06:44:14;;;;;;;5.40;4.23;;;5.20;99.90;;;;;;5055802;28;20174;-75
2021/04/05 06:47:17;;;;;;;7.73;4.20;;;5.30;99.90;;;;;;5054573;28;20234;-75
2021/04/05 06:50:13;;;;;;;7.33;4.23;;;5.30;99.90;;;;;;5055859;28;20184;-75
2021/04/05 06:52:53;;;;;;;5.43;3.97;;;5.30;99.90;;;;;;5055574;28;20224;-75
2021/04/05 06:55:57;;;;;;;6.23;4.37;;;5.40;99.90;;;;;;5041329;28;20187;-75
2021/04/05 06:58:25;;;;;;;9.40;4.43;;;5.60;99.90;;;;;;4975034;28;20183;-75
2021/04/05 07:01:03;;;;;;;6.87;4.83;;;5.60;99.90;;;;;;5036526;28;20216;-75
2021/04/05 07:03:56;;;;;;;6.80;5.77;;;5.60;99.90;;;;;;5055500;28;20204;-75
2021/04/05 07:06:43;;;;;;;6.67;5.43;;;5.70;99.90;;;;;;5047582;28;20189;-75
2021/04/05 07:09:49;;;;;;;9.23;5.67;;;5.90;99.90;;;;;;5052030;28;20580;-75
2021/04/05 07:12:42;;;;;;;5.83;4.53;;;5.90;99.90;;;;;;5055229;28;20193;-75
2021/04/05 07:15:25;;;;;;;8.20;4.90;;;5.90;99.90;;;;;;5055586;28;20645;-74
2021/04/05 07:18:08;;;;;;;8.40;5.30;;;5.90;99.90;;;;;;5055250;28;20180;-75
2021/04/05 07:20:57;;;;;;;7.97;5.60;;;6.10;99.90;;;;;;5055363;28;20236;-76
2021/04/05 07:23:37;;;;;;;7.00;4.90;;;6.10;99.90;;;;;;5017574;28;20198;-75
2021/04/05 07:26:22;;;;;;;5.43;4.00;;;6.30;99.90;;;;;;5046916;28;20649;-75
2021/04/05 07:29:10;;;;;;;8.37;5.20;;;6.30;99.90;;;;;;5055365;28;20211;-75
2021/04/05 07:31:58;;;;;;;7.67;5.53;;;6.40;99.90;;;;;;5053506;28;20217;-75
2021/04/05 07:34:44;;;;;;;5.23;4.30;;;6.50;99.90;;;;;;5055118;28;20205;-75
2021/04/05 07:37:25;;;;;;;8.67;5.10;;;6.60;99.90;;;;;;5054769;28;20181;-75
2021/04/05 07:40:06;;;;;;;7.17;4.30;;;6.70;99.90;;;;;;5046809;28;20173;-75
2021/04/05 07:42:56;;;;;;;5.33;4.10;;;6.80;99.90;;;;;;5039800;28;20695;-75
2021/04/05 07:45:32;;;;;;;5.33;3.73;;;7.00;99.90;;;;;;5039491;28;20182;-75
2021/04/05 07:48:19;;;;;;;5.43;3.70;;;7.10;99.90;;;;;;5054920;28;20258;-75
2021/04/05 07:50:56;;;;;;;5.77;3.93;;;7.30;99.90;;;;;;5051286;28;20201;-75
2021/04/05 07:53:44;;;;;;;12.47;4.63;;;7.40;99.90;;;;;;5052800;28;20228;-75
2021/04/05 07:56:44;;;;;;;8.20;3.70;;;7.60;99.90;;;;;;5053038;28;20205;-75
2021/04/05 07:59:22;;;;;;;4.73;3.67;;;7.90;99.90;;;;;;5054444;28;20539;-75
2021/04/05 08:02:01;;;;;;;7.30;4.40;;;8.10;99.90;;;;;;5054500;28;20186;-76
2021/04/05 08:05:05;;;;;;;6.43;4.30;;;8.30;99.90;;;;;;5054359;28;20175;-75
2021/04/05 08:08:04;;;;;;;7.83;4.53;;;8.40;99.90;;;;;;5053009;28;20184;-74
2021/04/05 08:10:55;;;;;;;7.83;3.80;;;8.40;99.90;;;;;;5046501;28;20194;-75
2021/04/05 08:13:40;;;;;;;6.37;3.90;;;8.50;99.90;;;;;;5054458;28;20191;-75
2021/04/05 08:16:11;;;;;;;12.97;5.07;;;8.70;99.90;;;;;;5054428;28;20203;-75
2021/04/05 08:19:14;;;;;;;8.80;4.37;;;8.70;99.90;;;;;;5054111;28;20176;-75
2021/04/05 08:22:04;;;;;;;9.87;4.80;;;8.80;99.90;;;;;;5054129;28;20214;-76
2021/04/05 08:24:50;;;;;;;8.40;5.67;;;8.90;99.90;;;;;;5053521;28;20214;-76
2021/04/05 08:27:43;;;;;;;11.13;4.30;;;9.00;99.90;;;;;;5045820;28;20176;-75
2021/04/05 08:30:21;;;;;;;12.27;3.67;;;9.10;99.90;;;;;;5054001;28;20180;-75
2021/04/05 08:33:20;;;;;;;6.90;3.80;;;9.20;99.90;;;;;;5053546;28;20216;-75
2021/04/05 08:35:49;;;;;;;7.30;4.10;;;9.50;99.90;;;;;;5052567;28;20261;-75
2021/04/05 08:38:20;;;;;;;7.43;4.37;;;9.60;99.90;;;;;;5053560;28;20200;-74
2021/04/05 08:41:09;;;;;;;23.93;5.10;;;9.70;99.90;;;;;;5053584;28;20177;-75
2021/04/05 08:44:05;;;;;;;8.03;4.70;;;9.80;99.90;;;;;;5052349;28;20184;-74
2021/04/05 08:46:33;;;;;;;10.10;4.10;;;9.90;99.90;;;;;;5053227;28;20220;-74
2021/04/05 08:49:01;;;;;;;10.83;4.30;;;9.90;99.90;;;;;;5052247;28;20177;-75
2021/04/05 08:51:40;;;;;;;6.30;3.97;;;10.00;99.90;;;;;;5052120;28;20631;-74
2021/04/05 08:54:07;;;;;;;8.53;3.93;;;10.00;99.90;;;;;;5052004;28;20204;-75
2021/04/05 08:56:38;;;;;;;7.73;3.83;;;10.10;99.90;;;;;;5052175;28;20181;-75
2021/04/05 08:59:34;;;;;;;6.37;3.50;;;10.10;99.90;;;;;;5052429;28;20590;-75
2021/04/05 09:02:24;;;;;;;8.50;4.13;;;10.10;99.90;;;;;;5046164;28;20217;-75
2021/04/05 09:04:53;;;;;;;8.07;3.40;;;10.10;99.90;;;;;;5041773;28;20173;-75
2021/04/05 09:07:34;;;;;;;4.33;3.60;;;10.10;99.90;;;;;;5034028;28;20236;-75
2021/04/05 09:10:06;;;;;;;7.00;3.80;;;10.20;99.90;;;;;;5043815;28;20189;-75
2021/04/05 09:12:34;;;;;;;8.40;4.13;;;10.10;99.90;;;;;;5049439;28;20215;-75
2021/04/05 09:15:21;;;;;;;8.00;3.50;;;10.20;99.90;;;;;;5051485;28;20701;-73
2021/04/05 09:18:28;;;;;;;12.77;4.23;;;10.20;99.90;;;;;;5050766;28;20546;-75
2021/04/05 09:21:31;;;;;;;6.40;3.27;;;10.10;99.90;;;;;;5039638;28;20209;-75
2021/04/05 09:24:23;;;;;;;5.53;4.10;;;10.20;99.90;;;;;;5052627;28;20743;-75
2021/04/05 09:27:04;;;;;;;4.57;3.27;;;10.30;99.90;;;;;;5049626;28;20702;-74
2021/04/05 09:30:08;;;;;;;4.70;3.40;;;10.30;99.90;;;;;;5053288;28;20178;-75
2021/04/05 09:33:07;;;;;;;9.43;3.37;;;10.30;99.90;;;;;;5050685;28;20266;-75
2021/04/05 09:36:01;;;;;;;6.90;3.47;;;10.20;99.90;;;;;;5053412;28;20177;-75
2021/04/05 09:38:36;;;;;;;8.23;4.50;;;10.20;99.90;;;;;;5051512;28;20174;-74
2021/04/05 09:41:29;;;;;;;13.23;4.57;;;10.20;99.90;;;;;;5053012;28;20189;-74
2021/04/05 09:44:25;;;;;;;4.70;3.97;;;10.20;99.90;;;;;;5052674;28;20235;-74
2021/04/05 09:47:10;;;;;;;10.23;3.57;;;10.20;99.90;;;;;;5052684;28;20177;-75
2021/04/05 09:49:38;;;;;;;7.60;3.97;;;10.30;99.90;;;;;;5053004;28;20173;-75
2021/04/05 09:52:41;;;;;;;9.30;4.43;;;10.30;99.90;;;;;;5052624;28;20213;-73
2021/04/05 09:55:15;;;;;;;8.80;3.73;;;10.40;99.90;;;;;;5044938;28;20203;-74
2021/04/05 09:57:51;;;;;;;10.40;4.13;;;10.40;99.90;;;;;;5052999;28;20232;-74
2021/04/05 10:00:18;;;;;;;7.77;4.57;;;10.50;99.90;;;;;;5053104;28;20173;-73
2021/04/05 10:02:54;;;;;;;7.50;4.53;;;10.50;99.90;;;;;;5045205;28;20281;-74
2021/04/05 10:05:21;;;;;;;8.97;4.43;;;10.50;99.90;;;;;;5035206;28;20652;-74
2021/04/05 10:07:48;;;;;;;11.00;4.63;;;10.50;99.90;;;;;;5051957;28;20170;-74
2021/04/05 10:10:15;;;;;;;14.70;4.90;;;10.50;99.90;;;;;;5052304;28;20169;-74
2021/04/05 10:12:45;;;;;;;11.27;4.30;;;10.60;99.90;;;;;;5051261;28;20272;-73
2021/04/05 10:15:13;;;;;;;8.90;4.27;;;10.60;99.90;;;;;;5053278;28;20203;-74
2021/04/05 10:17:45;;;;;;;11.73;5.03;;;10.60;99.90;;;;;;5055460;28;20745;-74
2021/04/05 10:20:12;;;;;;;9.33;4.77;;;10.70;99.90;;;;;;5055597;28;20239;-74
2021/04/05 10:22:41;;;;;;;12.33;5.37;;;10.70;99.90;;;;;;5054790;28;20198;-75
2021/04/05 10:27:44;;;;;;;6.93;5.07;;;10.80;99.90;;;;;;5073376;22;20264;-75
2021/04/05 10:30:15;;;;;;;8.83;4.83;;;10.90;99.90;;;;;;5056150;28;20184;-75
2021/04/05 10:32:42;;;;;;;11.53;5.47;;;10.90;99.90;;;;;;5056189;28;20181;-75
2021/04/05 10:35:12;;;;;;;11.00;5.03;;;11.00;99.90;;;;;;5055971;28;20190;-75
2021/04/05 10:37:46;;;;;;;7.80;5.10;;;11.00;99.90;;;;;;5036409;28;20186;-74
2021/04/05 10:40:14;;;;;;;8.80;4.70;;;11.10;99.90;;;;;;5036074;28;20178;-73
2021/04/05 10:42:51;;;;;;;9.13;5.20;;;11.20;99.90;;;;;;5032790;28;20166;-73
2021/04/05 10:45:25;;;;;;;7.90;5.07;;;11.20;99.90;;;;;;5036045;28;20177;-73
2021/04/05 10:48:15;;;;;;;10.83;4.77;;;11.30;99.90;;;;;;5035925;28;20602;-73
2021/04/05 10:50:52;;;;;;;7.77;4.40;;;11.50;99.90;;;;;;5035836;28;20179;-72
2021/04/05 10:53:20;;;;;;;14.43;4.80;;;11.60;99.90;;;;;;5034356;28;20197;-73
2021/04/05 10:55:51;;;;;;;8.33;4.70;;;11.90;99.90;;;;;;5035800;28;20595;-75
2021/04/05 10:58:22;;;;;;;7.27;4.13;;;12.00;99.90;;;;;;5034573;28;20186;-74
2021/04/05 11:00:53;;;;;;;8.07;4.40;;;12.10;99.90;;;;;;5035960;28;20189;-74
2021/04/05 11:03:22;;;;;;;6.53;3.47;;;12.30;99.50;;;;;;5035673;28;20636;-74
2021/04/05 11:05:53;;;;;;;11.50;3.63;;;12.30;99.90;;;;;;5035639;28;20207;-74
2021/04/05 11:08:26;;;;;;;6.83;3.77;;;12.30;99.00;;;;;;5035385;28;20801;-74
2021/04/05 11:11:30;;;;;;;7.70;3.10;;;12.40;99.40;;;;;;5035914;28;20173;-74
2021/04/05 11:14:02;;;;;;;9.17;3.13;;;12.50;98.60;;;;;;4982546;28;20296;-72
2021/04/05 11:16:29;;;;;;;7.83;3.23;;;12.50;98.00;;;;;;5033614;28;20198;-72
2021/04/05 11:18:59;;;;;;;4.87;3.10;;;12.50;98.50;;;;;;5034163;28;20708;-72
2021/04/05 11:21:40;;;;;;;5.07;2.67;;;12.60;97.90;;;;;;5034044;28;20171;-72
2021/04/05 11:24:09;;;;;;;11.10;3.60;;;12.50;97.60;;;;;;5020954;28;20181;-72
2021/04/05 11:26:36;;;;;;;5.47;3.20;;;12.50;97.90;;;;;;5034266;28;20210;-72
2021/04/05 11:29:06;;;;;;;5.77;3.70;;;12.60;97.50;;;;;;5032538;28;20208;-72
2021/04/05 11:31:38;;;;;;;5.67;2.70;;;12.60;97.30;;;;;;5033653;28;20170;-73
2021/04/05 11:34:06;;;;;;;5.80;3.00;;;12.70;97.50;;;;;;5030311;28;20199;-72
2021/04/05 11:36:45;;;;;;;5.33;3.40;;;12.90;97.00;;;;;;5034377;28;20190;-73
2021/04/05 11:39:15;;;;;;;5.33;3.33;;;13.00;96.80;;;;;;5034334;28;20182;-72
2021/04/05 11:41:44;;;;;;;6.77;3.13;;;13.10;96.40;;;;;;5033003;28;20228;-72
2021/04/05 11:44:11;;;;;;;4.13;2.67;;;13.10;97.00;;;;;;5033071;28;20232;-73
2021/04/05 11:46:40;;;;;;;10.80;3.47;;;13.30;96.70;;;;;;5030014;28;20674;-72
2021/04/05 11:49:08;;;;;;;7.40;3.07;;;13.40;96.20;;;;;;5032105;28;20178;-73
2021/04/05 11:51:54;;;;;;;8.13;2.97;;;13.40;96.20;;;;;;5033411;28;20183;-73
2021/04/05 11:54:27;;;;;;;4.60;2.93;;;13.60;96.40;;;;;;5035254;28;20194;-73
2021/04/05 11:56:55;;;;;;;10.00;2.97;;;13.90;95.60;;;;;;5033178;28;20317;-73
2021/04/05 11:59:28;;;;;;;6.30;2.43;;;14.10;95.20;;;;;;5034572;28;20184;-72
2021/04/05 12:01:54;;;;;;;4.83;2.70;;;14.10;94.10;;;;;;5034501;28;20170;-73
2021/04/05 12:04:30;;;;;;;8.23;3.00;;;14.00;93.50;;;;;;5034820;28;20204;-72
2021/04/05 12:07:14;;;;;;;10.10;2.70;;;13.90;92.80;;;;;;5034650;28;20194;-72
2021/04/05 12:10:16;;;;;;;13.40;3.03;;;13.70;92.90;;;;;;5034627;28;20590;-72
2021/04/05 12:12:51;;;;;;;3.47;2.50;;;13.80;93.50;;;;;;5032352;28;20208;-72
2021/04/05 12:15:19;;;;;;;7.73;3.07;;;14.00;93.90;;;;;;5034467;28;20198;-72
2021/04/05 12:17:52;;;;;;;6.87;3.20;;;13.90;92.80;;;;;;5030266;28;20201;-73
2021/04/05 12:20:26;;;;;;;3.97;2.73;;;14.00;93.50;;;;;;5021808;28;20175;-73
2021/04/05 12:22:55;;;;;;;6.17;2.33;;;14.10;93.80;;;;;;5024836;28;20229;-73
2021/04/05 12:25:40;;;;;;;8.30;2.93;;;14.20;92.50;;;;;;5026540;28;20186;-72
2021/04/05 12:28:10;;;;;;;6.47;3.07;;;14.20;92.40;;;;;;5024810;28;20630;-73
2021/04/05 12:30:37;;;;;;;5.27;2.70;;;14.30;92.90;;;;;;5030372;28;20219;-73
2021/04/05 12:33:05;;;;;;;12.03;3.20;;;14.30;92.20;;;;;;5026788;28;20636;-74
2021/04/05 12:35:32;;;;;;;3.57;2.60;;;14.20;91.40;;;;;;5025162;28;20212;-73
2021/04/05 12:38:02;;;;;;;7.83;2.67;;;14.20;92.10;;;;;;5033110;28;20627;-73
2021/04/05 12:40:36;;;;;;;8.43;3.07;;;14.30;92.50;;;;;;5026647;28;20177;-73
2021/04/05 12:43:05;;;;;;;8.27;2.80;;;14.20;92.20;;;;;;5038863;28;20186;-73
2021/04/05 12:45:33;;;;;;;8.83;2.87;;;14.00;91.80;;;;;;5026069;28;20779;-73
2021/04/05 12:47:59;;;;;;;5.63;3.10;;;13.90;92.30;;;;;;5032538;28;20174;-73
2021/04/05 12:50:28;;;;;;;7.17;2.93;;;13.80;92.90;;;;;;5031241;28;20174;-73
2021/04/05 12:53:00;;;;;;;5.30;2.00;;;13.70;92.50;;;;;;5028617;28;20170;-73
2021/04/05 12:55:28;;;;;;;5.07;2.27;;;13.80;92.50;;;;;;5019532;28;20207;-72
2021/04/05 12:57:56;;;;;;;3.43;2.37;;;13.80;91.70;;;;;;5023778;28;20182;-73
2021/04/05 13:00:23;;;;;;;16.87;2.50;;;13.90;91.70;;;;;;5022002;28;20230;-72
2021/04/05 13:02:57;;;;;;;9.53;2.47;;;13.80;91.40;;;;;;5028867;28;20187;-73
2021/04/05 13:06:05;;;;;;;5.87;2.20;;;13.80;91.50;;;;;;5027423;28;20180;-73
2021/04/05 13:08:46;;;;;;;3.87;2.17;;;13.80;91.90;;;;;;5021223;28;20675;-73
2021/04/05 13:11:19;;;;;;;7.13;2.30;;;13.70;91.70;;;;;;5025605;28;20281;-73
2021/04/05 13:14:08;;;;;;;4.00;2.10;;;13.70;91.80;;;;;;5020606;28;20203;-73
2021/04/05 13:16:46;;;;;;;6.97;1.60;;;13.70;90.80;;;;;;5026968;28;20667;-73
2021/04/05 13:19:15;;;;;;;8.83;2.97;;;13.60;91.00;;;;;;5040297;28;20182;-73
2021/04/05 13:21:43;;;;;;;4.40;1.43;;;13.60;90.30;;;;;;5023733;28;20665;-73
2021/04/05 13:24:19;;;;;;;7.07;1.70;;;13.60;90.10;;;;;;5018813;28;20178;-73
2021/04/05 13:26:49;;;;;;;3.37;1.40;;;13.60;90.50;;;;;;5025461;28;20649;-73
2021/04/05 13:29:22;;;;;;;6.37;1.53;;;13.60;90.90;;;;;;5027961;28;20186;-73
2021/04/05 13:31:54;;;;;;;4.10;1.80;;;13.60;91.20;;;;;;5025044;28;20661;-73
2021/04/05 13:34:26;;;;;;;7.27;2.03;;;13.60;91.00;;;;;;5019810;28;20199;-73
2021/04/05 13:36:55;;;;;;;6.83;1.83;;;13.60;91.10;;;;;;5023916;28;20559;-73